Aviation Digital Data Service (ADDS)

Output produced by METARs form (1846 UTC 28 September 2016)
found at http://aviationweather.gov/adds/metars/
 
KYNG 281736Z 2818/2918 13010KT P6SM BKN200 
     FM290100 09012KT P6SM OVC035 
     FM290300 09010KT P6SM OVC025 
     FM290600 09010KT 5SM -RA BR OVC025 
     FM291200 10009KT P6SM OVC025